Time;durP1;ratioP1;P1;durP2;ratioP2;P2;SDS_P1;SDS_P2;PMS_P1;PMS_P2;Temp;Humidity;BMP_temperature;BMP_pressure;BME280_temperature;BME280_humidity;BME280_pressure;Samples;Min_cycle;Max_cycle;Signal;HPM_P1;HPM_P2
2023/04/16 04:04:49;;;;;;;3.15;2.42;;;8.20;99.90;;;;;;5744499;23;20263;-63
2023/04/16 04:07:15;;;;;;;2.70;2.25;;;8.20;99.90;;;;;;4937428;29;20279;-63
2023/04/16 04:09:40;;;;;;;3.03;2.70;;;8.20;99.90;;;;;;4938035;29;20177;-62
2023/04/16 04:12:06;;;;;;;2.00;1.83;;;8.20;99.90;;;;;;4920721;29;20341;-63
2023/04/16 04:14:32;;;;;;;4.90;3.20;;;8.20;99.90;;;;;;4937813;29;20188;-63
2023/04/16 04:16:57;;;;;;;2.30;2.10;;;8.20;99.90;;;;;;4938119;29;20670;-63
2023/04/16 04:19:23;;;;;;;4.90;3.13;;;8.20;99.90;;;;;;4937927;29;20209;-63
2023/04/16 04:21:48;;;;;;;2.90;2.70;;;8.20;99.90;;;;;;4938049;29;20259;-63
2023/04/16 04:24:14;;;;;;;12.00;4.00;;;8.20;99.90;;;;;;4937616;29;20177;-63
2023/04/16 04:26:39;;;;;;;5.20;3.77;;;8.20;99.90;;;;;;4937848;29;20566;-63
2023/04/16 04:29:05;;;;;;;3.70;3.40;;;8.20;99.90;;;;;;4937764;29;20203;-63
2023/04/16 04:31:31;;;;;;;2.37;1.73;;;8.20;99.90;;;;;;4937726;29;20292;-62
2023/04/16 04:33:56;;;;;;;5.40;4.50;;;8.20;99.90;;;;;;4937029;29;20192;-62
2023/04/16 04:36:22;;;;;;;5.53;4.73;;;8.20;99.90;;;;;;4937050;29;20224;-62
2023/04/16 04:38:47;;;;;;;2.93;2.30;;;8.20;99.90;;;;;;4937985;29;20643;-62
2023/04/16 04:41:13;;;;;;;7.40;3.50;;;8.20;99.90;;;;;;4937629;29;20185;-62
2023/04/16 04:43:38;;;;;;;5.47;4.97;;;8.20;99.90;;;;;;4937342;29;20181;-63
2023/04/16 04:46:04;;;;;;;3.57;2.40;;;8.20;99.90;;;;;;4937394;29;20196;-63
2023/04/16 04:48:30;;;;;;;2.43;2.33;;;8.20;99.90;;;;;;4937488;29;20726;-63
2023/04/16 04:50:55;;;;;;;6.07;3.20;;;8.20;99.90;;;;;;4937900;29;20209;-63
2023/04/16 04:53:21;;;;;;;2.90;2.60;;;8.20;99.90;;;;;;4937046;29;20210;-62
2023/04/16 04:55:46;;;;;;;4.13;2.97;;;8.20;99.90;;;;;;4937661;29;20230;-63
2023/04/16 04:58:12;;;;;;;3.67;3.47;;;8.20;99.90;;;;;;4937378;29;20294;-63
2023/04/16 05:00:37;;;;;;;6.53;2.57;;;8.20;99.90;;;;;;4937379;29;20201;-63
2023/04/16 05:03:08;;;;;;;3.33;2.97;;;8.20;99.90;;;;;;4937097;29;20537;-62
2023/04/16 05:05:33;;;;;;;8.00;4.25;;;8.20;99.90;;;;;;4937201;29;20300;-63
2023/04/16 05:07:59;;;;;;;7.93;3.47;;;8.20;99.90;;;;;;4937067;29;20268;-63
2023/04/16 05:10:26;;;;;;;3.50;3.20;;;8.20;99.90;;;;;;4937254;29;20217;-63
2023/04/16 05:12:51;;;;;;;3.53;3.22;;;8.20;99.90;;;;;;4936856;29;20236;-62
2023/04/16 05:15:17;;;;;;;3.97;3.50;;;8.20;99.90;;;;;;4936815;29;20192;-63
2023/04/16 05:17:43;;;;;;;3.63;3.20;;;8.20;99.90;;;;;;4936919;29;20655;-63
2023/04/16 05:20:09;;;;;;;3.27;3.00;;;8.20;99.90;;;;;;4937023;29;20184;-63
2023/04/16 05:22:35;;;;;;;4.20;3.65;;;8.20;99.90;;;;;;4936143;29;20647;-63
2023/04/16 05:25:00;;;;;;;4.87;3.33;;;8.20;99.90;;;;;;4936540;29;20292;-63
2023/04/16 05:27:26;;;;;;;5.97;4.47;;;8.20;99.90;;;;;;4937028;29;20257;-63
2023/04/16 05:29:51;;;;;;;5.80;4.07;;;8.20;99.90;;;;;;4936834;29;20513;-62
2023/04/16 05:32:17;;;;;;;4.27;3.87;;;8.20;99.90;;;;;;4936323;29;20232;-63
2023/04/16 05:34:43;;;;;;;5.77;5.20;;;8.20;99.90;;;;;;4936157;29;20264;-62
2023/04/16 05:37:08;;;;;;;6.23;4.73;;;8.20;99.90;;;;;;4936766;29;20177;-62
2023/04/16 05:39:34;;;;;;;2.20;1.90;;;8.20;99.90;;;;;;4936733;29;20662;-63
2023/04/16 05:41:59;;;;;;;6.73;4.03;;;8.20;99.90;;;;;;4936674;29;20185;-63
2023/04/16 05:44:25;;;;;;;4.70;4.30;;;8.20;99.90;;;;;;4936116;29;20186;-62
2023/04/16 05:46:51;;;;;;;4.90;3.60;;;8.20;99.90;;;;;;4922333;29;20209;-62
2023/04/16 05:49:20;;;;;;;6.72;5.80;;;8.20;99.90;;;;;;4934997;29;20209;-62
2023/04/16 05:51:47;;;;;;;4.35;4.05;;;8.20;99.90;;;;;;4936253;29;20671;-63
2023/04/16 05:54:12;;;;;;;5.10;3.47;;;8.20;99.90;;;;;;4936106;29;20182;-63
2023/04/16 05:56:38;;;;;;;9.23;4.50;;;8.20;99.90;;;;;;4936412;29;20197;-63
2023/04/16 05:59:03;;;;;;;5.70;4.00;;;8.20;99.90;;;;;;4936438;29;20176;-63
2023/04/16 06:01:29;;;;;;;4.20;3.67;;;8.20;99.90;;;;;;4922683;29;20493;-63
2023/04/16 06:03:54;;;;;;;4.40;3.53;;;8.20;99.90;;;;;;4917005;29;20592;-62
2023/04/16 06:06:20;;;;;;;5.40;4.40;;;8.20;99.90;;;;;;4900209;29;20194;-63
2023/04/16 06:08:45;;;;;;;5.63;4.73;;;8.30;99.90;;;;;;4917137;29;20551;-63
2023/04/16 06:11:11;;;;;;;4.87;4.00;;;8.20;99.90;;;;;;4917328;29;20213;-63
2023/04/16 06:13:37;;;;;;;6.60;5.57;;;8.20;99.90;;;;;;4923247;29;20174;-63
2023/04/16 06:16:03;;;;;;;7.45;5.53;;;8.20;99.90;;;;;;4936227;29;20201;-62
2023/04/16 06:18:29;;;;;;;8.00;4.70;;;8.20;99.90;;;;;;4918987;29;20189;-63
2023/04/16 06:20:55;;;;;;;5.50;4.00;;;8.30;99.90;;;;;;4935980;29;20184;-62
2023/04/16 06:23:20;;;;;;;7.60;5.37;;;8.30;99.90;;;;;;4902629;29;20185;-62
2023/04/16 06:25:46;;;;;;;5.53;4.97;;;8.30;99.90;;;;;;4935851;29;20204;-62
2023/04/16 06:28:11;;;;;;;6.83;5.43;;;8.30;99.90;;;;;;4930481;29;20181;-62
2023/04/16 06:30:38;;;;;;;7.33;5.90;;;8.40;99.90;;;;;;4917161;29;20245;-62
2023/04/16 06:33:04;;;;;;;11.98;7.00;;;8.40;99.90;;;;;;4916639;29;20181;-62
2023/04/16 06:35:29;;;;;;;7.60;6.55;;;8.40;99.90;;;;;;4920222;29;20254;-62
2023/04/16 06:37:55;;;;;;;8.57;5.07;;;8.40;99.90;;;;;;4920471;29;20233;-62
2023/04/16 06:40:21;;;;;;;8.07;5.03;;;8.40;99.90;;;;;;4925356;29;20169;-61
2023/04/16 06:42:47;;;;;;;9.10;5.40;;;8.50;99.90;;;;;;4938795;29;20671;-62
2023/04/16 06:45:12;;;;;;;9.57;4.33;;;8.50;99.90;;;;;;4938853;29;20196;-63
2023/04/16 06:47:38;;;;;;;4.80;4.37;;;8.40;99.90;;;;;;4939487;29;20190;-62
2023/04/16 06:50:04;;;;;;;5.77;4.97;;;8.50;99.90;;;;;;4939459;29;20174;-65
2023/04/16 06:52:30;;;;;;;4.53;4.13;;;8.50;99.90;;;;;;4936456;29;20260;-61
2023/04/16 06:54:55;;;;;;;9.30;6.37;;;8.50;99.90;;;;;;4937573;29;20178;-61
2023/04/16 06:57:21;;;;;;;4.50;3.40;;;8.50;99.90;;;;;;4938192;29;20170;-62
2023/04/16 06:59:46;;;;;;;7.87;4.17;;;8.60;99.90;;;;;;4938058;29;20505;-61
2023/04/16 07:02:12;;;;;;;9.70;5.27;;;8.60;99.90;;;;;;4935480;29;20177;-61
2023/04/16 07:04:38;;;;;;;3.27;3.00;;;8.60;99.90;;;;;;4935910;29;20208;-63
2023/04/16 07:07:03;;;;;;;8.53;5.87;;;8.60;99.90;;;;;;4937612;29;20230;-69
2023/04/16 07:09:29;;;;;;;9.23;5.40;;;8.60;99.90;;;;;;4920963;29;20212;-66
2023/04/16 07:11:54;;;;;;;7.17;5.60;;;8.60;99.90;;;;;;4937648;29;20556;-64
2023/04/16 07:14:20;;;;;;;8.50;5.70;;;8.60;99.90;;;;;;4937299;29;20173;-63
2023/04/16 07:16:45;;;;;;;6.17;5.57;;;8.50;99.90;;;;;;4937034;29;20193;-64
2023/04/16 07:19:11;;;;;;;7.77;5.10;;;8.50;99.90;;;;;;4937996;29;20240;-64
2023/04/16 07:21:37;;;;;;;7.13;4.33;;;8.50;99.90;;;;;;4937876;29;20181;-65
2023/04/16 07:24:02;;;;;;;8.13;4.83;;;8.60;99.90;;;;;;4937673;29;20173;-61
2023/04/16 07:26:28;;;;;;;6.00;5.40;;;8.60;99.90;;;;;;4937833;29;20232;-61
2023/04/16 07:28:54;;;;;;;6.20;4.67;;;8.60;99.90;;;;;;4937807;29;20240;-61
2023/04/16 07:31:19;;;;;;;5.40;4.97;;;8.70;99.90;;;;;;4920535;29;20289;-60
2023/04/16 07:33:45;;;;;;;5.33;4.83;;;8.70;99.90;;;;;;4937389;29;20174;-62
2023/04/16 07:36:11;;;;;;;7.20;4.90;;;8.70;99.90;;;;;;4937655;29;20195;-61
2023/04/16 07:38:36;;;;;;;4.83;4.23;;;8.70;99.90;;;;;;4917033;29;20178;-62
2023/04/16 07:41:02;;;;;;;5.40;4.93;;;8.70;99.90;;;;;;4918639;29;20787;-61
2023/04/16 07:43:27;;;;;;;8.90;4.40;;;8.70;99.90;;;;;;4918298;29;20277;-62
2023/04/16 07:45:53;;;;;;;7.57;6.30;;;8.70;99.90;;;;;;4900851;29;20222;-61
2023/04/16 07:48:20;;;;;;;8.77;4.80;;;8.70;99.90;;;;;;4918622;29;20225;-61
2023/04/16 07:50:46;;;;;;;7.05;5.70;;;8.70;99.90;;;;;;4918416;29;20470;-62
2023/04/16 07:53:11;;;;;;;10.20;5.80;;;8.80;99.90;;;;;;4913276;29;20182;-62
2023/04/16 07:55:37;;;;;;;6.90;6.20;;;8.80;99.90;;;;;;4901595;29;20596;-67
2023/04/16 07:58:02;;;;;;;5.97;5.27;;;8.80;99.90;;;;;;4918349;29;20170;-69
2023/04/16 08:00:28;;;;;;;6.30;4.73;;;8.80;99.90;;;;;;4918433;29;20174;-68
2023/04/16 08:02:54;;;;;;;6.07;5.10;;;8.80;99.90;;;;;;4924634;29;20182;-62
2023/04/16 08:05:19;;;;;;;4.67;4.13;;;8.90;99.90;;;;;;4935956;29;20456;-63
2023/04/16 08:07:45;;;;;;;6.13;5.30;;;8.90;99.90;;;;;;4920940;29;20189;-63
2023/04/16 08:10:11;;;;;;;6.57;5.83;;;8.90;99.90;;;;;;4918149;29;20197;-63
2023/04/16 08:12:37;;;;;;;4.55;4.15;;;8.90;99.90;;;;;;4921931;29;20833;-63
2023/04/16 08:15:03;;;;;;;7.57;4.93;;;8.90;99.90;;;;;;4936553;29;20288;-63
2023/04/16 08:17:29;;;;;;;7.60;5.00;;;8.90;99.90;;;;;;4937098;29;20205;-62
2023/04/16 08:19:55;;;;;;;6.63;6.00;;;9.00;99.90;;;;;;4936462;29;20249;-64
2023/04/16 08:22:21;;;;;;;5.73;4.20;;;9.00;99.90;;;;;;4936481;29;20240;-64
2023/04/16 08:24:47;;;;;;;7.35;6.65;;;9.00;99.90;;;;;;4936490;29;20174;-62
2023/04/16 08:27:12;;;;;;;8.90;6.17;;;9.00;99.90;;;;;;4936784;29;20651;-63
2023/04/16 08:29:38;;;;;;;7.37;4.70;;;9.00;99.90;;;;;;4936653;29;20174;-62
2023/04/16 08:32:03;;;;;;;5.93;5.10;;;9.10;99.90;;;;;;4930967;29;20220;-63
2023/04/16 08:34:29;;;;;;;6.00;5.00;;;9.10;99.90;;;;;;4925424;29;20186;-62
2023/04/16 08:36:54;;;;;;;7.50;5.57;;;9.10;99.90;;;;;;4936772;29;20202;-61
2023/04/16 08:39:20;;;;;;;5.17;4.67;;;9.10;99.90;;;;;;4936602;29;20647;-62
2023/04/16 08:41:46;;;;;;;6.57;4.40;;;9.10;99.90;;;;;;4936216;29;20246;-62
2023/04/16 08:44:36;;;;;;;6.07;5.40;;;9.10;99.90;;;;;;4936266;29;20421;-67
2023/04/16 08:47:02;;;;;;;7.03;4.97;;;9.20;99.90;;;;;;4928949;29;20974;-67
2023/04/16 08:49:28;;;;;;;6.63;5.93;;;9.20;99.90;;;;;;4926127;29;20182;-65
2023/04/16 08:51:55;;;;;;;10.40;6.37;;;9.20;99.90;;;;;;4926018;29;20205;-69
2023/04/16 08:54:33;;;;;;;8.38;4.18;;;9.30;99.90;;;;;;4916438;29;20183;-65
2023/04/16 08:57:01;;;;;;;5.25;4.57;;;9.30;99.90;;;;;;4917440;29;20227;-62
2023/04/16 08:59:28;;;;;;;4.20;3.80;;;9.30;99.90;;;;;;4917704;29;20205;-63
2023/04/16 09:02:00;;;;;;;4.40;4.00;;;9.30;99.90;;;;;;4932102;29;20241;-63
2023/04/16 09:04:29;;;;;;;5.20;3.63;;;9.30;99.90;;;;;;4935719;29;20190;-63
2023/04/16 09:06:56;;;;;;;7.60;3.47;;;9.30;99.90;;;;;;4936323;29;20209;-63
2023/04/16 09:09:22;;;;;;;6.55;5.28;;;9.40;99.90;;;;;;4936778;29;20186;-62
2023/04/16 09:11:53;;;;;;;5.30;4.40;;;9.40;99.90;;;;;;4902539;29;20201;-65
2023/04/16 09:14:20;;;;;;;5.68;4.53;;;9.50;99.90;;;;;;4926166;29;20788;-62
2023/04/16 09:16:46;;;;;;;5.80;4.22;;;9.50;99.90;;;;;;4936650;29;20197;-63
2023/04/16 09:19:15;;;;;;;4.80;2.47;;;9.50;99.90;;;;;;4935191;29;20177;-63
2023/04/16 09:21:44;;;;;;;5.20;3.70;;;9.60;99.90;;;;;;4936775;29;20664;-63
2023/04/16 09:24:10;;;;;;;7.07;5.43;;;9.60;99.90;;;;;;4936403;29;20584;-62
2023/04/16 09:26:36;;;;;;;5.70;3.83;;;9.60;99.90;;;;;;4936795;29;20541;-63
2023/04/16 09:29:01;;;;;;;4.33;3.70;;;9.60;99.90;;;;;;4929400;29;20189;-63
2023/04/16 09:31:27;;;;;;;4.50;3.90;;;9.60;99.90;;;;;;4923039;29;20691;-62
2023/04/16 09:34:03;;;;;;;5.17;4.67;;;9.60;99.90;;;;;;4936409;29;20392;-63
2023/04/16 09:36:30;;;;;;;7.03;3.60;;;9.70;99.90;;;;;;4936443;29;20514;-62
2023/04/16 09:38:56;;;;;;;5.65;4.25;;;9.70;99.90;;;;;;4936526;29;20652;-62
2023/04/16 09:41:27;;;;;;;6.90;5.85;;;9.70;99.90;;;;;;4936570;29;20521;-61
2023/04/16 09:43:55;;;;;;;5.53;4.20;;;9.80;99.90;;;;;;4935901;29;20209;-62
2023/04/16 09:46:21;;;;;;;4.85;4.35;;;9.70;99.90;;;;;;4928712;29;20202;-62
2023/04/16 09:48:47;;;;;;;7.40;5.23;;;9.70;99.90;;;;;;4920064;29;20187;-62
2023/04/16 09:51:12;;;;;;;4.03;3.63;;;9.70;99.90;;;;;;4917532;29;20755;-66
2023/04/16 09:53:38;;;;;;;5.43;3.97;;;9.60;99.90;;;;;;4917120;29;20178;-63
2023/04/16 09:56:07;;;;;;;9.03;4.50;;;9.60;99.90;;;;;;4917340;29;20187;-62
2023/04/16 09:58:35;;;;;;;5.20;4.80;;;9.60;99.90;;;;;;4930570;29;20185;-62
2023/04/16 10:01:07;;;;;;;5.78;4.18;;;9.50;99.90;;;;;;4936149;29;20232;-65
2023/04/16 10:03:35;;;;;;;4.57;4.18;;;9.50;99.90;;;;;;4935742;29;20177;-65
2023/04/16 10:06:12;;;;;;;5.25;4.68;;;9.40;99.90;;;;;;4919360;29;20678;-66
2023/04/16 10:08:42;;;;;;;4.88;4.38;;;9.40;99.90;;;;;;4917158;29;20556;-63
2023/04/16 10:11:08;;;;;;;5.75;5.25;;;9.50;99.90;;;;;;4916965;29;20282;-65
2023/04/16 10:13:33;;;;;;;5.13;4.03;;;9.40;99.90;;;;;;4899616;29;20187;-63
2023/04/16 10:15:59;;;;;;;4.20;3.40;;;9.40;99.90;;;;;;4916892;29;20685;-64
2023/04/16 10:18:26;;;;;;;4.85;4.18;;;9.40;99.90;;;;;;4920548;29;20178;-63
2023/04/16 10:20:52;;;;;;;4.20;3.38;;;9.40;99.90;;;;;;4934151;29;20178;-63
2023/04/16 10:23:20;;;;;;;4.23;3.83;;;9.30;99.90;;;;;;4935685;29;20170;-64
2023/04/16 10:25:51;;;;;;;5.53;4.95;;;9.30;99.90;;;;;;4935954;29;20425;-63
2023/04/16 10:28:17;;;;;;;6.53;5.28;;;9.30;99.90;;;;;;4935746;29;20543;-63
2023/04/16 10:30:51;;;;;;;8.25;4.78;;;9.30;99.90;;;;;;4936041;29;20265;-63
2023/04/16 10:33:22;;;;;;;4.07;3.78;;;9.30;99.90;;;;;;4935735;29;20177;-64
2023/04/16 10:35:49;;;;;;;3.75;3.42;;;9.40;99.90;;;;;;4935510;29;20202;-62
2023/04/16 10:38:26;;;;;;;5.50;3.90;;;9.40;99.90;;;;;;4909271;29;20178;-63
2023/04/16 10:41:20;;;;;;;6.97;4.57;;;9.40;99.90;;;;;;4929156;29;20227;-64
2023/04/16 10:43:47;;;;;;;6.60;3.53;;;9.40;99.90;;;;;;4933005;29;20549;-63
2023/04/16 10:46:35;;;;;;;4.28;3.85;;;9.50;99.90;;;;;;4936007;29;20556;-62
2023/04/16 10:49:20;;;;;;;5.38;4.70;;;9.50;99.90;;;;;;4932170;29;20559;-63
2023/04/16 10:52:03;;;;;;;5.30;4.25;;;9.60;99.90;;;;;;4917022;29;20285;-63
2023/04/16 10:54:30;;;;;;;5.47;4.95;;;9.70;99.90;;;;;;4916645;29;20189;-62
2023/04/16 10:57:03;;;;;;;4.63;3.13;;;9.70;99.90;;;;;;4916615;29;20198;-63
2023/04/16 10:59:34;;;;;;;7.65;4.32;;;9.80;99.90;;;;;;4918422;29;20181;-63
2023/04/16 11:02:05;;;;;;;4.18;3.75;;;9.80;99.90;;;;;;4929063;29;20193;-66
2023/04/16 11:04:36;;;;;;;5.75;4.10;;;9.90;99.90;;;;;;4924744;29;20186;-64
2023/04/16 11:07:10;;;;;;;4.00;3.70;;;9.90;99.90;;;;;;4920912;29;20299;-65
2023/04/16 11:09:58;;;;;;;5.68;4.78;;;9.90;99.90;;;;;;4918212;29;20319;-63
2023/04/16 11:12:26;;;;;;;4.97;4.20;;;9.80;99.90;;;;;;4917178;29;20201;-65
2023/04/16 11:15:03;;;;;;;3.40;3.10;;;9.70;99.90;;;;;;4931676;29;20189;-65
2023/04/16 11:17:39;;;;;;;5.10;3.58;;;9.70;99.90;;;;;;4928786;29;20541;-67
2023/04/16 11:20:08;;;;;;;3.45;3.15;;;9.70;99.90;;;;;;4921240;29;20196;-65
2023/04/16 11:22:37;;;;;;;4.47;3.70;;;9.70;99.90;;;;;;4923549;29;20174;-66
2023/04/16 11:25:03;;;;;;;4.60;2.97;;;9.70;99.90;;;;;;4928127;29;20562;-68
2023/04/16 11:27:32;;;;;;;5.07;3.30;;;9.70;99.90;;;;;;4939343;29;20186;-65
2023/04/16 11:30:03;;;;;;;3.85;3.55;;;9.70;99.90;;;;;;4937121;29;20238;-66
2023/04/16 11:32:33;;;;;;;6.20;2.90;;;9.80;99.90;;;;;;4937453;29;20216;-65
2023/04/16 11:35:02;;;;;;;7.93;3.67;;;9.80;99.90;;;;;;4935912;29;20185;-62
2023/04/16 11:37:33;;;;;;;3.08;2.40;;;9.80;99.90;;;;;;4938346;29;20201;-62
2023/04/16 11:40:00;;;;;;;5.07;3.17;;;9.80;99.90;;;;;;4925020;29;20189;-62
2023/04/16 11:42:27;;;;;;;2.78;2.60;;;9.80;99.90;;;;;;4927533;29;20543;-67
2023/04/16 11:44:59;;;;;;;3.22;2.97;;;9.80;99.90;;;;;;4938568;29;20226;-65
2023/04/16 11:47:26;;;;;;;4.90;3.92;;;9.70;99.90;;;;;;4922375;29;20185;-65
2023/04/16 11:49:52;;;;;;;3.08;2.55;;;9.80;99.90;;;;;;4938840;29;20181;-65
2023/04/16 11:52:26;;;;;;;3.27;2.50;;;9.80;99.90;;;;;;4931102;29;20217;-65
2023/04/16 11:54:52;;;;;;;3.55;3.25;;;9.80;99.90;;;;;;4933409;29;20775;-64
2023/04/16 11:57:31;;;;;;;3.75;3.03;;;9.80;99.90;;;;;;4938240;29;20185;-65
2023/04/16 11:59:58;;;;;;;3.42;2.92;;;9.90;99.90;;;;;;4937913;29;20180;-65
2023/04/16 12:02:44;;;;;;;3.13;2.85;;;9.80;99.90;;;;;;4937447;29;20205;-64
2023/04/16 12:05:31;;;;;;;3.13;2.92;;;9.80;99.90;;;;;;4937628;29;20213;-64
2023/04/16 12:08:02;;;;;;;5.00;3.00;;;9.90;99.90;;;;;;4926162;29;20189;-65
2023/04/16 12:10:28;;;;;;;4.07;2.25;;;9.90;99.90;;;;;;4937988;29;20256;-65
2023/04/16 12:12:53;;;;;;;5.47;2.17;;;10.00;99.90;;;;;;4936896;29;20715;-65
2023/04/16 12:15:19;;;;;;;3.50;2.60;;;10.10;99.90;;;;;;4937915;29;20197;-65
2023/04/16 12:17:45;;;;;;;2.40;2.17;;;10.10;99.90;;;;;;4938164;29;20536;-66
2023/04/16 12:20:14;;;;;;;2.80;2.60;;;10.10;99.90;;;;;;4937377;29;20502;-65
2023/04/16 12:22:45;;;;;;;4.22;2.53;;;10.20;99.90;;;;;;4930371;29;20204;-66
2023/04/16 12:25:13;;;;;;;1.55;1.45;;;10.20;99.90;;;;;;4935589;29;20615;-65
2023/04/16 12:27:50;;;;;;;2.75;2.55;;;10.10;99.90;;;;;;4941046;29;20197;-65
2023/04/16 12:30:23;;;;;;;2.20;2.03;;;10.10;99.90;;;;;;4923252;29;20190;-65
2023/04/16 12:32:50;;;;;;;3.47;3.00;;;10.10;99.90;;;;;;4922846;29;20504;-64
2023/04/16 12:35:36;;;;;;;3.80;2.85;;;10.20;99.90;;;;;;4918731;29;20201;-66
2023/04/16 12:38:02;;;;;;;2.50;2.30;;;10.20;99.90;;;;;;4918189;29;20593;-65
2023/04/16 12:40:28;;;;;;;2.63;2.00;;;10.20;99.90;;;;;;4933906;29;20240;-64
2023/04/16 12:42:54;;;;;;;2.67;2.57;;;10.20;99.90;;;;;;4936977;29;20186;-64
2023/04/16 12:45:21;;;;;;;3.55;2.83;;;10.10;99.90;;;;;;4926484;29;20395;-63
2023/04/16 12:47:47;;;;;;;2.03;1.92;;;10.10;99.90;;;;;;4946650;29;20180;-64
2023/04/16 12:50:12;;;;;;;1.83;1.73;;;10.10;99.90;;;;;;4956502;29;20224;-65
2023/04/16 12:52:38;;;;;;;1.93;1.83;;;10.10;99.90;;;;;;4942683;29;20540;-65
2023/04/16 12:55:04;;;;;;;2.00;1.87;;;10.10;99.90;;;;;;4936419;29;20193;-65
2023/04/16 12:57:30;;;;;;;1.73;1.50;;;10.10;99.90;;;;;;4925754;29;20194;-65
2023/04/16 12:59:57;;;;;;;4.23;2.93;;;10.10;99.90;;;;;;4918275;29;20956;-65
2023/04/16 13:02:23;;;;;;;1.60;1.50;;;10.10;99.90;;;;;;4918049;29;20178;-65
2023/04/16 13:04:52;;;;;;;2.60;1.92;;;10.20;99.90;;;;;;4929011;29;20261;-65
2023/04/16 13:07:18;;;;;;;2.05;1.95;;;10.20;99.90;;;;;;4929906;29;20225;-65
2023/04/16 13:09:45;;;;;;;2.65;2.45;;;10.30;99.90;;;;;;4919781;29;20181;-64
2023/04/16 13:12:10;;;;;;;1.95;1.83;;;10.30;99.90;;;;;;4929658;29;20650;-64
2023/04/16 13:14:36;;;;;;;2.50;1.60;;;10.30;99.90;;;;;;4910494;29;20181;-65
2023/04/16 13:17:02;;;;;;;2.93;2.63;;;10.20;99.90;;;;;;4902080;29;20210;-65
2023/04/16 13:19:29;;;;;;;2.00;1.80;;;10.20;99.90;;;;;;4918105;29;20422;-65
2023/04/16 13:21:54;;;;;;;2.88;2.67;;;10.20;99.90;;;;;;4929234;29;20644;-64
2023/04/16 13:24:20;;;;;;;1.90;1.80;;;10.20;99.90;;;;;;4918480;29;20189;-64
2023/04/16 13:26:46;;;;;;;2.83;2.13;;;10.20;99.90;;;;;;4933630;29;20239;-65
2023/04/16 13:29:11;;;;;;;1.90;1.80;;;10.20;99.90;;;;;;4936771;29;20421;-64
2023/04/16 13:31:37;;;;;;;3.23;2.93;;;10.20;99.90;;;;;;4936500;29;20257;-63
2023/04/16 13:34:03;;;;;;;2.90;2.60;;;10.20;99.90;;;;;;4934717;29;20588;-65
2023/04/16 13:36:30;;;;;;;2.23;2.03;;;10.10;99.90;;;;;;4923413;29;20929;-64
2023/04/16 13:38:57;;;;;;;3.28;2.58;;;10.10;99.90;;;;;;4921352;29;20987;-65
2023/04/16 13:41:23;;;;;;;2.53;2.28;;;10.10;99.90;;;;;;4922091;29;20170;-64
2023/04/16 13:43:48;;;;;;;2.30;2.20;;;10.10;99.90;;;;;;4935359;29;20734;-65
2023/04/16 13:46:14;;;;;;;2.03;1.90;;;10.10;99.90;;;;;;4923694;29;20198;-64
2023/04/16 13:48:39;;;;;;;2.20;2.07;;;10.10;99.90;;;;;;4917410;29;20183;-65
2023/04/16 13:51:05;;;;;;;2.00;1.77;;;10.10;99.90;;;;;;4900215;29;20267;-64
2023/04/16 13:53:31;;;;;;;2.70;2.50;;;10.10;99.90;;;;;;4924742;29;20185;-64
2023/04/16 13:55:56;;;;;;;2.07;1.97;;;10.20;99.90;;;;;;4935503;29;20210;-64
2023/04/16 13:58:22;;;;;;;4.37;2.70;;;10.10;99.90;;;;;;4921159;29;20265;-65
2023/04/16 14:00:48;;;;;;;2.57;2.37;;;10.20;99.90;;;;;;4917434;29;20175;-65
2023/04/16 14:03:13;;;;;;;2.03;1.90;;;10.20;99.90;;;;;;4917026;29;20193;-64
2023/04/16 14:05:40;;;;;;;3.10;2.90;;;10.20;99.90;;;;;;4917294;29;20312;-64
2023/04/16 14:08:05;;;;;;;3.50;3.20;;;10.20;99.90;;;;;;4920037;29;20196;-64
2023/04/16 14:10:31;;;;;;;2.43;2.27;;;10.20;99.90;;;;;;4917237;29;20178;-65
2023/04/16 14:12:57;;;;;;;2.20;2.00;;;10.20;99.90;;;;;;4927203;29;20207;-65
2023/04/16 14:15:25;;;;;;;1.87;1.77;;;10.20;99.90;;;;;;4936037;29;20285;-64
2023/04/16 14:17:51;;;;;;;2.88;2.47;;;10.20;99.90;;;;;;4935787;29;20183;-64
2023/04/16 14:20:16;;;;;;;2.23;2.03;;;10.20;99.90;;;;;;4922319;29;20662;-65
2023/04/16 14:22:43;;;;;;;4.67;3.50;;;10.20;99.90;;;;;;4922422;29;20261;-64
2023/04/16 14:25:08;;;;;;;3.60;3.25;;;10.20;99.90;;;;;;4923418;29;20238;-64
2023/04/16 14:27:34;;;;;;;3.57;3.17;;;10.20;99.90;;;;;;4934315;29;20174;-64
2023/04/16 14:30:00;;;;;;;2.83;2.63;;;10.20;99.90;;;;;;4936136;29;20209;-65
2023/04/16 14:32:26;;;;;;;2.87;2.43;;;10.20;99.90;;;;;;4936042;29;20469;-65
2023/04/16 14:34:51;;;;;;;3.30;2.93;;;10.20;99.90;;;;;;4929557;29;20178;-65
2023/04/16 14:37:17;;;;;;;3.80;3.13;;;10.20;99.90;;;;;;4930891;29;20945;-65
2023/04/16 14:39:43;;;;;;;3.73;3.33;;;10.20;99.90;;;;;;4917010;29;20179;-65
2023/04/16 14:42:09;;;;;;;3.23;2.93;;;10.20;99.90;;;;;;4933314;29;20209;-64
2023/04/16 14:44:35;;;;;;;4.00;3.15;;;10.20;99.90;;;;;;4900061;29;20781;-65
2023/04/16 14:47:00;;;;;;;5.63;3.60;;;10.20;99.90;;;;;;4921134;29;20201;-64
2023/04/16 14:49:26;;;;;;;4.10;3.50;;;10.20;99.90;;;;;;4928666;29;20684;-65
2023/04/16 14:51:52;;;;;;;2.83;2.63;;;10.20;99.90;;;;;;4927158;29;20729;-64
2023/04/16 14:54:19;;;;;;;4.83;3.43;;;10.20;99.90;;;;;;4935147;29;20513;-64
2023/04/16 14:56:46;;;;;;;2.90;2.45;;;10.10;99.90;;;;;;4937716;29;20199;-65
2023/04/16 14:59:12;;;;;;;4.28;2.78;;;10.10;99.90;;;;;;4930400;29;20232;-65
2023/04/16 15:01:38;;;;;;;3.23;2.90;;;10.10;99.90;;;;;;4932966;29;20181;-65
2023/04/16 15:04:05;;;;;;;2.65;2.45;;;10.00;99.90;;;;;;4921186;29;20178;-64
2023/04/16 15:06:32;;;;;;;3.17;2.78;;;10.10;99.90;;;;;;4915187;29;20201;-65
2023/04/16 15:08:57;;;;;;;2.80;2.60;;;10.10;99.90;;;;;;4939220;29;20204;-65
2023/04/16 15:11:23;;;;;;;6.10;3.13;;;10.10;99.90;;;;;;4939267;29;20193;-64
2023/04/16 15:13:49;;;;;;;4.17;3.77;;;10.10;99.90;;;;;;4938159;29;20269;-63
2023/04/16 15:16:14;;;;;;;4.67;4.27;;;10.10;99.90;;;;;;4937904;29;20328;-65
2023/04/16 15:18:40;;;;;;;4.03;3.73;;;10.10;99.90;;;;;;4924568;29;20549;-64
2023/04/16 15:21:06;;;;;;;4.53;3.93;;;10.10;99.90;;;;;;4922682;29;20182;-63
2023/04/16 15:23:31;;;;;;;5.40;4.60;;;10.10;99.90;;;;;;4938196;29;20205;-65
2023/04/16 15:25:57;;;;;;;3.67;3.30;;;10.10;99.90;;;;;;4938680;29;20198;-64
2023/04/16 15:28:23;;;;;;;4.63;3.60;;;10.10;99.90;;;;;;4934324;29;20175;-64
2023/04/16 15:30:49;;;;;;;4.23;3.60;;;10.10;99.90;;;;;;4920328;29;20736;-65
2023/04/16 15:33:15;;;;;;;7.67;5.53;;;10.10;99.90;;;;;;4919498;29;20538;-63
2023/04/16 15:35:40;;;;;;;6.10;5.50;;;10.10;99.90;;;;;;4919699;29;20561;-64
2023/04/16 15:38:07;;;;;;;4.13;3.63;;;10.10;99.90;;;;;;4919912;29;20422;-64
2023/04/16 15:40:32;;;;;;;5.78;4.30;;;10.10;99.90;;;;;;4930910;29;20186;-64
2023/04/16 15:42:58;;;;;;;5.97;4.30;;;10.00;99.90;;;;;;4938198;29;20640;-64
2023/04/16 15:45:23;;;;;;;3.63;3.30;;;10.00;99.90;;;;;;4938613;29;20197;-63
2023/04/16 15:47:52;;;;;;;4.13;3.80;;;10.00;99.90;;;;;;4938950;29;20173;-64
2023/04/16 15:50:18;;;;;;;4.18;3.78;;;10.00;99.90;;;;;;4937191;29;20177;-64
2023/04/16 15:52:45;;;;;;;6.50;4.32;;;9.90;99.90;;;;;;4937297;29;20601;-64
2023/04/16 15:55:11;;;;;;;6.00;4.60;;;9.90;99.90;;;;;;4912729;29;20249;-66
2023/04/16 15:57:37;;;;;;;5.13;4.63;;;9.90;99.90;;;;;;4938533;29;20175;-65
2023/04/16 16:00:11;;;;;;;5.37;4.20;;;9.90;99.90;;;;;;4930807;29;20423;-66
2023/04/16 16:02:38;;;;;;;5.90;3.55;;;9.90;99.90;;;;;;4936438;29;20417;-65
2023/04/16 16:05:06;;;;;;;7.82;5.25;;;9.80;99.90;;;;;;4934205;29;20204;-65
2023/04/16 16:07:32;;;;;;;7.32;5.28;;;9.90;99.90;;;;;;4936749;29;20548;-64
2023/04/16 16:09:58;;;;;;;6.03;5.07;;;9.80;99.90;;;;;;4938158;29;20189;-66
2023/04/16 16:12:23;;;;;;;5.43;4.93;;;9.80;99.90;;;;;;4934767;29;20469;-67
2023/04/16 16:14:49;;;;;;;10.00;5.93;;;9.80;99.90;;;;;;4937653;29;20188;-65
2023/04/16 16:17:15;;;;;;;6.03;4.72;;;9.80;99.90;;;;;;4935294;29;20181;-67
2023/04/16 16:19:41;;;;;;;6.70;6.10;;;9.80;99.90;;;;;;4919512;29;20257;-64
2023/04/16 16:22:08;;;;;;;4.90;4.10;;;9.80;99.90;;;;;;4919819;29;20464;-64
2023/04/16 16:24:33;;;;;;;6.90;4.78;;;9.80;99.90;;;;;;4925658;29;20169;-66
2023/04/16 16:27:00;;;;;;;5.47;4.13;;;9.80;99.90;;;;;;4937938;29;20193;-65
2023/04/16 16:29:26;;;;;;;8.25;5.75;;;9.80;99.90;;;;;;4937450;29;20213;-65
2023/04/16 16:31:51;;;;;;;8.10;4.43;;;9.80;99.90;;;;;;4917023;29;20236;-65
2023/04/16 16:34:17;;;;;;;6.90;6.30;;;9.80;99.90;;;;;;4926578;29;20178;-64
2023/04/16 16:36:45;;;;;;;6.20;5.60;;;9.80;99.90;;;;;;4936780;29;20231;-65
2023/04/16 16:39:11;;;;;;;4.80;4.30;;;9.80;99.90;;;;;;4936298;29;20220;-65
2023/04/16 16:41:40;;;;;;;5.10;4.70;;;9.80;99.90;;;;;;4935648;29;20609;-65
2023/04/16 16:44:10;;;;;;;5.97;5.18;;;9.80;99.90;;;;;;4915521;29;20177;-65
2023/04/16 16:46:35;;;;;;;5.93;4.20;;;9.90;99.90;;;;;;4935627;29;20675;-65
2023/04/16 16:49:04;;;;;;;7.90;5.80;;;9.90;99.90;;;;;;4918587;29;20264;-65
2023/04/16 16:51:29;;;;;;;6.05;5.38;;;9.90;99.90;;;;;;4904793;29;20584;-67
2023/04/16 16:53:55;;;;;;;4.60;4.13;;;9.90;99.90;;;;;;4924781;29;20205;-64
2023/04/16 16:56:21;;;;;;;5.80;4.90;;;9.90;99.90;;;;;;4918144;29;20422;-66